createdAt,value
2022-12-24T04:01:25.426Z,90.83
2022-12-24T04:04:36.881Z,103.37
2022-12-24T04:07:47.425Z,114.17
2022-12-24T04:10:57.439Z,112.57
2022-12-24T04:14:07.602Z,104.57
2022-12-24T04:17:19.265Z,146.80
2022-12-24T04:20:30.337Z,98.70
2022-12-24T04:23:42.623Z,132.60
2022-12-24T04:26:53.151Z,159.37
2022-12-24T04:30:04.005Z,111.70
2022-12-24T04:33:15.645Z,132.90
2022-12-24T04:36:25.814Z,117.67
2022-12-24T04:39:35.808Z,102.80
2022-12-24T04:42:45.836Z,82.80
2022-12-24T04:45:55.903Z,96.80
2022-12-24T04:49:07.149Z,84.90
2022-12-24T04:52:17.380Z,94.50
2022-12-24T04:55:27.272Z,90.00
2022-12-24T04:58:37.277Z,89.83
2022-12-24T05:01:47.403Z,63.73
2022-12-24T05:04:58.965Z,81.70
2022-12-24T05:08:09.154Z,98.50
2022-12-24T05:11:19.426Z,72.47
2022-12-24T05:14:29.722Z,83.83
2022-12-24T05:17:40.189Z,79.17
2022-12-24T05:20:52.067Z,104.30
2022-12-24T05:24:13.184Z,80.20
2022-12-24T05:27:23.561Z,74.83
2022-12-24T05:30:33.553Z,87.53
2022-12-24T05:33:43.516Z,104.77
2022-12-24T05:36:54.773Z,77.77
2022-12-24T05:40:05.318Z,73.93
2022-12-24T05:43:15.509Z,80.53
2022-12-24T05:46:26.767Z,69.87
2022-12-24T05:49:38.123Z,93.97
2022-12-24T05:52:49.434Z,97.80
2022-12-24T05:56:05.329Z,118.77
2022-12-24T05:59:15.558Z,74.20
2022-12-24T07:39:06.803Z,93.57
2022-12-24T07:42:17.006Z,109.60
2022-12-24T07:45:27.711Z,113.67
2022-12-24T07:48:38.134Z,97.17
2022-12-24T07:51:48.172Z,121.20
2022-12-24T07:54:59.548Z,111.17
2022-12-24T07:58:09.556Z,136.97
2022-12-24T08:01:19.699Z,103.80
2022-12-24T08:04:32.808Z,106.50
2022-12-24T08:07:42.808Z,117.50
2022-12-24T08:10:54.892Z,87.23
2022-12-24T08:14:04.957Z,116.60
2022-12-24T08:17:15.014Z,148.80
2022-12-24T08:20:25.133Z,113.07
2022-12-24T08:23:35.202Z,122.27
2022-12-24T08:26:46.733Z,134.80
2022-12-24T08:29:56.654Z,125.70
2022-12-24T08:33:06.647Z,88.17
2022-12-24T08:36:16.625Z,109.63
2022-12-24T08:39:26.720Z,115.10
2022-12-24T08:42:38.060Z,125.43
2022-12-24T08:45:49.356Z,108.07
2022-12-24T08:48:59.611Z,129.37
2022-12-24T08:52:09.899Z,122.27
2022-12-24T08:55:20.059Z,100.30
2022-12-24T08:58:32.506Z,88.20
2022-12-24T09:01:42.725Z,108.53
2022-12-24T09:04:52.890Z,105.23
2022-12-24T09:08:02.920Z,91.53
2022-12-24T09:11:15.652Z,100.73
2022-12-24T09:14:27.024Z,88.23
2022-12-24T09:17:37.544Z,79.00
2022-12-24T09:20:50.192Z,90.90
2022-12-24T09:24:05.589Z,131.57
2022-12-24T09:27:15.573Z,144.90
2022-12-24T09:30:27.157Z,215.30
2022-12-24T09:33:39.576Z,202.63
2022-12-24T09:36:49.614Z,179.63
2022-12-24T09:39:59.633Z,205.27
2022-12-24T09:43:17.167Z,214.00
2022-12-24T09:46:32.733Z,218.57
2022-12-24T09:49:46.543Z,192.20
2022-12-24T09:52:58.373Z,200.17
2022-12-24T09:56:14.213Z,162.50
2022-12-24T09:59:28.115Z,152.33
2022-12-24T10:02:39.896Z,139.57
2022-12-24T10:06:02.743Z,146.20
2022-12-24T10:09:21.064Z,109.20
2022-12-24T10:12:47.710Z,112.93
2022-12-24T10:16:04.535Z,114.47
2022-12-24T10:19:22.666Z,95.63
2022-12-24T10:22:42.314Z,92.67
2022-12-24T10:26:04.591Z,88.70
2022-12-24T10:29:19.332Z,82.93
2022-12-24T10:32:33.625Z,86.47
2022-12-24T10:35:50.039Z,94.50
2022-12-24T10:39:00.476Z,91.37
2022-12-24T10:42:15.003Z,104.40
2022-12-24T10:45:32.220Z,97.77
2022-12-24T10:48:50.641Z,96.87
2022-12-24T10:52:06.592Z,111.93
2022-12-24T10:55:24.776Z,260.40
2022-12-24T10:58:35.638Z,125.20
2022-12-24T11:01:49.011Z,139.00
2022-12-24T11:05:00.556Z,204.17
2022-12-24T11:08:18.195Z,269.27
2022-12-24T11:11:35.587Z,215.90
2022-12-24T11:14:45.887Z,149.70
2022-12-24T11:17:58.073Z,112.77
2022-12-24T11:21:09.189Z,123.50
2022-12-24T11:24:29.017Z,139.13
2022-12-24T11:27:44.616Z,147.50
2022-12-24T11:31:01.992Z,110.60
2022-12-24T11:34:24.552Z,112.90
2022-12-24T11:37:34.808Z,107.00
2022-12-24T11:40:48.890Z,130.10
2022-12-24T11:44:03.825Z,104.37
2022-12-24T11:47:15.411Z,85.10
2022-12-24T11:50:29.346Z,78.53
2022-12-24T11:53:45.956Z,82.50
2022-12-24T11:57:01.000Z,91.53
2022-12-24T12:00:12.729Z,70.03
2022-12-24T12:03:31.677Z,91.83
2022-12-24T12:06:47.745Z,108.77
2022-12-24T12:10:01.871Z,105.67
2022-12-24T12:13:16.553Z,113.77
2022-12-24T12:16:56.262Z,109.23
2022-12-24T12:20:14.491Z,106.70
2022-12-24T12:23:29.995Z,127.83
2022-12-24T12:26:44.187Z,117.07
2022-12-24T12:30:00.837Z,74.00
2022-12-24T12:33:21.987Z,106.93
2022-12-24T12:36:37.298Z,93.67
2022-12-24T12:39:47.615Z,116.80
2022-12-24T12:43:13.876Z,96.93
2022-12-24T12:46:33.770Z,102.60
2022-12-24T12:49:57.222Z,82.17
2022-12-24T12:53:30.568Z,104.97
2022-12-24T12:56:47.158Z,101.90
2022-12-24T13:00:02.843Z,99.30
2022-12-24T13:03:36.401Z,95.70
2022-12-24T13:07:04.137Z,96.77
2022-12-24T13:10:34.520Z,124.97
2022-12-24T13:14:01.469Z,88.30
2022-12-24T13:17:29.812Z,102.27
2022-12-24T13:20:46.903Z,132.43
2022-12-24T13:24:06.968Z,108.43
2022-12-24T13:27:20.147Z,61.47
2022-12-24T13:30:37.084Z,78.23
2022-12-24T13:33:49.650Z,91.80
2022-12-24T13:37:07.013Z,85.27
2022-12-24T13:40:23.304Z,78.83
2022-12-24T13:44:03.626Z,117.47
2022-12-24T13:47:25.272Z,87.60
2022-12-24T13:50:41.352Z,116.10
2022-12-24T13:54:00.073Z,123.63
2022-12-24T13:57:26.723Z,117.87
2022-12-24T14:00:44.813Z,97.77
2022-12-24T14:03:59.109Z,87.23
2022-12-24T14:07:11.491Z,77.47
2022-12-24T14:10:26.834Z,80.70
2022-12-24T14:13:52.554Z,66.90
2022-12-24T14:17:05.849Z,71.53
2022-12-24T14:20:17.055Z,76.93
2022-12-24T14:23:36.631Z,1999.90
2022-12-24T14:27:16.264Z,1999.90
2022-12-24T14:30:28.048Z,1999.90
2022-12-24T14:33:52.030Z,1999.90
2022-12-24T14:37:18.504Z,1999.90
2022-12-24T14:41:10.497Z,1999.90
2022-12-24T14:44:35.640Z,1999.90
2022-12-24T14:47:53.330Z,1999.90
2022-12-24T14:51:13.695Z,1999.90
2022-12-24T14:54:36.359Z,1999.90
2022-12-24T14:58:17.568Z,1999.90
2022-12-24T15:01:45.496Z,1999.90
2022-12-24T15:05:11.244Z,1999.90
2022-12-24T15:08:27.089Z,1999.90
2022-12-24T15:11:37.499Z,1999.90
2022-12-24T15:14:47.489Z,1999.90
2022-12-24T15:18:00.408Z,1999.90
2022-12-24T15:21:19.193Z,1999.90
2022-12-24T15:24:32.660Z,1999.90
2022-12-24T15:27:42.703Z,1999.90
2022-12-24T15:31:06.572Z,1999.90
2022-12-24T15:34:43.835Z,1999.90
2022-12-24T15:37:59.660Z,1999.90
2022-12-24T15:41:25.478Z,1999.90
2022-12-24T15:44:57.542Z,1999.90
2022-12-24T15:48:11.459Z,1999.90
2022-12-24T15:51:57.996Z,1999.90
2022-12-24T15:55:27.126Z,1999.90
2022-12-24T15:58:42.058Z,1999.90
2022-12-24T16:01:52.719Z,1999.90
2022-12-24T16:05:19.220Z,1999.90
2022-12-24T16:08:33.956Z,1999.90
2022-12-24T16:12:03.771Z,1999.90
2022-12-24T16:15:18.692Z,1999.90
2022-12-24T16:18:33.296Z,1999.90
2022-12-24T16:21:44.137Z,1999.90
2022-12-24T16:24:55.871Z,1999.90
2022-12-24T16:28:16.139Z,1999.90
2022-12-24T16:31:41.717Z,1999.90
2022-12-24T16:34:53.023Z,1999.90
2022-12-24T16:43:09.783Z,1999.90
2022-12-24T16:49:52.703Z,1999.90
2022-12-24T16:53:02.639Z,1999.90
2022-12-24T16:56:12.370Z,1999.90
2022-12-24T16:59:25.520Z,1999.90
2022-12-24T17:02:35.442Z,1999.90
2022-12-24T17:05:45.632Z,1999.90
2022-12-24T17:08:55.377Z,1999.90
2022-12-24T17:12:05.543Z,1999.90
2022-12-24T17:15:16.673Z,1999.90
2022-12-24T17:18:26.421Z,1999.90
2022-12-24T17:21:37.181Z,1999.90
2022-12-24T17:24:47.321Z,1999.90
2022-12-24T17:27:56.957Z,1999.90
2022-12-24T17:31:09.379Z,1999.90
2022-12-24T17:34:19.094Z,1999.90
2022-12-24T17:37:29.064Z,1999.90
2022-12-24T17:40:41.327Z,1999.90
2022-12-24T17:43:51.235Z,1999.90
2022-12-24T17:47:05.199Z,1999.90
2022-12-24T17:50:15.221Z,1999.90
2022-12-24T17:53:25.060Z,1999.90
2022-12-24T17:56:34.823Z,1999.90
2022-12-24T17:59:44.716Z,1999.90
2022-12-24T18:02:55.811Z,1999.90
2022-12-24T18:06:07.119Z,1999.90
2022-12-24T18:09:19.037Z,1999.90
2022-12-24T18:12:28.929Z,1999.90
2022-12-24T18:15:41.126Z,1999.90
2022-12-24T18:18:53.328Z,1999.90
2022-12-24T18:22:03.075Z,1999.90
2022-12-24T18:25:15.767Z,1999.90
2022-12-24T18:28:25.448Z,1999.90
2022-12-24T18:31:35.695Z,1999.90
2022-12-24T18:34:46.809Z,1999.90
2022-12-24T18:37:56.696Z,1999.90
2022-12-24T18:41:08.215Z,1999.90
2022-12-24T18:44:24.260Z,1999.90
2022-12-24T18:47:34.901Z,1999.90
2022-12-24T18:50:58.275Z,1999.90
2022-12-24T18:54:08.683Z,1999.90
2022-12-24T18:57:18.648Z,1999.90
2022-12-24T19:00:28.716Z,1999.90
2022-12-24T19:03:38.517Z,1999.90
2022-12-24T19:06:53.308Z,1999.90
2022-12-24T19:10:03.597Z,1999.90
2022-12-24T19:13:13.407Z,1999.90
2022-12-24T19:16:23.315Z,1999.90
2022-12-24T19:19:33.094Z,1999.90
2022-12-24T19:22:44.204Z,1999.90
2022-12-24T19:25:53.851Z,1999.90
2022-12-24T19:29:03.503Z,1999.90
2022-12-24T19:32:13.242Z,1999.90
2022-12-24T19:35:22.940Z,1999.90
2022-12-24T19:38:34.674Z,1999.90
2022-12-24T19:41:44.323Z,1999.90
2022-12-24T19:44:54.169Z,1999.90
2022-12-24T19:48:04.478Z,1999.90
2022-12-24T19:51:14.223Z,1999.90
2022-12-24T19:54:25.222Z,1999.90
2022-12-24T19:57:35.157Z,1999.90
2022-12-24T20:00:44.881Z,1999.90
2022-12-24T20:03:55.448Z,1999.90
2022-12-24T20:07:05.380Z,1999.90
2022-12-24T20:10:16.516Z,1999.90
2022-12-24T20:13:26.494Z,1999.90
2022-12-24T20:16:36.797Z,1999.90
2022-12-24T20:19:49.823Z,1999.90
2022-12-24T20:22:59.739Z,1999.90
2022-12-24T20:26:14.169Z,1999.90
2022-12-24T20:29:24.036Z,1999.90
2022-12-24T20:32:33.800Z,1999.90
2022-12-24T20:35:43.506Z,1999.90
2022-12-24T20:38:53.546Z,1999.90
2022-12-24T20:42:04.911Z,1999.90
2022-12-24T20:45:14.758Z,1999.90
2022-12-24T20:48:24.799Z,1999.90
2022-12-24T20:51:34.699Z,1999.90
2022-12-24T20:54:44.473Z,1999.90
2022-12-24T20:57:55.517Z,1999.90
2022-12-24T21:01:09.580Z,1999.90
2022-12-24T21:04:19.620Z,1999.90
2022-12-24T21:07:29.598Z,1999.90
2022-12-24T21:10:40.256Z,1999.90
2022-12-24T21:13:50.371Z,1999.90
2022-12-24T21:17:00.332Z,1999.90
2022-12-24T21:20:10.851Z,1999.90
2022-12-24T21:23:20.564Z,1999.90
2022-12-24T21:26:30.277Z,1999.90
2022-12-24T21:29:41.368Z,1999.90
2022-12-24T21:32:51.445Z,1999.90
2022-12-24T21:36:01.222Z,1999.90
2022-12-24T21:39:10.936Z,1999.90
2022-12-24T21:42:20.892Z,1999.90
2022-12-24T21:45:32.348Z,1999.90
2022-12-24T21:48:53.157Z,1999.90
2022-12-24T21:52:02.917Z,1999.90
2022-12-24T21:55:12.584Z,1999.90
2022-12-24T21:58:23.594Z,1999.90
2022-12-24T22:01:34.706Z,1999.90
2022-12-24T22:04:44.830Z,1999.90
2022-12-24T22:08:06.427Z,1999.90
2022-12-24T22:11:27.561Z,1999.90
2022-12-24T22:14:37.316Z,1999.90
2022-12-24T22:17:48.359Z,1999.90
2022-12-24T22:20:58.044Z,1999.90
2022-12-24T22:24:08.507Z,1999.90
2022-12-24T22:27:18.355Z,1999.90
2022-12-24T22:30:28.366Z,1999.90
2022-12-24T22:33:39.309Z,1999.90
2022-12-24T22:36:49.023Z,1999.90
2022-12-24T22:39:58.686Z,1999.90
2022-12-24T22:43:08.652Z,1999.90
2022-12-24T22:46:18.860Z,1999.90
2022-12-24T22:49:29.883Z,1999.90
2022-12-24T22:52:39.914Z,1999.90
2022-12-24T22:55:56.142Z,1999.90
2022-12-24T22:59:05.835Z,1999.90
2022-12-24T23:02:15.865Z,1999.90
2022-12-24T23:05:28.596Z,1999.90
2022-12-24T23:08:39.032Z,1999.90
2022-12-24T23:11:48.852Z,1999.90
2022-12-24T23:14:57.688Z,1999.90
2022-12-24T23:18:08.597Z,1999.90
2022-12-24T23:21:20.071Z,1999.90
2022-12-24T23:24:30.490Z,1999.90
2022-12-24T23:27:40.213Z,1999.90
